sensor_id;sensor_type;location;lat;lon;timestamp;P1;durP1;ratioP1;P2;durP2;ratioP2
20697;SDS011;10508;50.956;4.640;2023-07-31T00:00:36;11.95;;;3.58;;
20697;SDS011;10508;50.956;4.640;2023-07-31T00:03:01;11.95;;;2.88;;
20697;SDS011;10508;50.956;4.640;2023-07-31T00:05:27;11.90;;;3.05;;
20697;SDS011;10508;50.956;4.640;2023-07-31T00:07:53;12.50;;;3.53;;
20697;SDS011;10508;50.956;4.640;2023-07-31T00:10:19;10.48;;;3.15;;
20697;SDS011;10508;50.956;4.640;2023-07-31T00:12:46;14.18;;;3.55;;
20697;SDS011;10508;50.956;4.640;2023-07-31T00:15:12;14.43;;;3.45;;
20697;SDS011;10508;50.956;4.640;2023-07-31T00:17:39;11.45;;;3.38;;
20697;SDS011;10508;50.956;4.640;2023-07-31T00:20:05;9.90;;;2.97;;
20697;SDS011;10508;50.956;4.640;2023-07-31T00:22:31;9.93;;;3.33;;
20697;SDS011;10508;50.956;4.640;2023-07-31T00:24:56;13.18;;;3.17;;
20697;SDS011;10508;50.956;4.640;2023-07-31T00:27:22;12.25;;;4.38;;
20697;SDS011;10508;50.956;4.640;2023-07-31T00:29:48;16.52;;;4.18;;
20697;SDS011;10508;50.956;4.640;2023-07-31T00:32:14;12.27;;;3.38;;
20697;SDS011;10508;50.956;4.640;2023-07-31T00:34:39;9.57;;;3.42;;
20697;SDS011;10508;50.956;4.640;2023-07-31T00:37:06;15.38;;;3.83;;
20697;SDS011;10508;50.956;4.640;2023-07-31T00:39:33;11.65;;;3.95;;
20697;SDS011;10508;50.956;4.640;2023-07-31T00:42:01;12.45;;;3.20;;
20697;SDS011;10508;50.956;4.640;2023-07-31T00:44:30;26.48;;;4.07;;
20697;SDS011;10508;50.956;4.640;2023-07-31T00:46:58;20.33;;;3.65;;
20697;SDS011;10508;50.956;4.640;2023-07-31T00:49:26;10.73;;;3.42;;
20697;SDS011;10508;50.956;4.640;2023-07-31T00:51:54;13.35;;;3.75;;
20697;SDS011;10508;50.956;4.640;2023-07-31T00:54:23;10.00;;;3.58;;
20697;SDS011;10508;50.956;4.640;2023-07-31T00:56:49;10.57;;;3.20;;
20697;SDS011;10508;50.956;4.640;2023-07-31T00:59:18;12.95;;;3.45;;
20697;SDS011;10508;50.956;4.640;2023-07-31T01:01:46;15.13;;;4.13;;
20697;SDS011;10508;50.956;4.640;2023-07-31T01:04:12;13.88;;;3.90;;
20697;SDS011;10508;50.956;4.640;2023-07-31T01:06:47;16.80;;;4.03;;
20697;SDS011;10508;50.956;4.640;2023-07-31T01:09:27;17.38;;;3.95;;
20697;SDS011;10508;50.956;4.640;2023-07-31T01:11:57;12.13;;;3.20;;
20697;SDS011;10508;50.956;4.640;2023-07-31T01:14:27;10.70;;;3.28;;
20697;SDS011;10508;50.956;4.640;2023-07-31T01:16:52;9.77;;;3.30;;
20697;SDS011;10508;50.956;4.640;2023-07-31T01:19:20;15.27;;;4.18;;
20697;SDS011;10508;50.956;4.640;2023-07-31T01:24:42;12.95;;;3.75;;
20697;SDS011;10508;50.956;4.640;2023-07-31T01:27:28;13.35;;;3.60;;
20697;SDS011;10508;50.956;4.640;2023-07-31T01:30:15;14.65;;;3.40;;
20697;SDS011;10508;50.956;4.640;2023-07-31T01:32:44;16.20;;;3.78;;
20697;SDS011;10508;50.956;4.640;2023-07-31T01:35:13;10.35;;;3.72;;
20697;SDS011;10508;50.956;4.640;2023-07-31T01:37:39;11.43;;;3.72;;
20697;SDS011;10508;50.956;4.640;2023-07-31T01:40:05;12.77;;;4.13;;
20697;SDS011;10508;50.956;4.640;2023-07-31T01:42:37;14.23;;;3.95;;
20697;SDS011;10508;50.956;4.640;2023-07-31T01:45:03;12.52;;;4.32;;
20697;SDS011;10508;50.956;4.640;2023-07-31T01:47:29;9.77;;;3.47;;
20697;SDS011;10508;50.956;4.640;2023-07-31T01:49:55;18.55;;;4.18;;
20697;SDS011;10508;50.956;4.640;2023-07-31T01:52:20;10.32;;;3.20;;
20697;SDS011;10508;50.956;4.640;2023-07-31T01:54:47;11.38;;;3.88;;
20697;SDS011;10508;50.956;4.640;2023-07-31T01:57:13;11.73;;;3.63;;
20697;SDS011;10508;50.956;4.640;2023-07-31T01:59:39;8.13;;;3.28;;
20697;SDS011;10508;50.956;4.640;2023-07-31T02:02:08;13.18;;;3.42;;
20697;SDS011;10508;50.956;4.640;2023-07-31T02:04:36;12.55;;;3.83;;
20697;SDS011;10508;50.956;4.640;2023-07-31T02:07:05;7.00;;;2.95;;
20697;SDS011;10508;50.956;4.640;2023-07-31T02:09:34;14.43;;;3.88;;
20697;SDS011;10508;50.956;4.640;2023-07-31T02:12:02;12.43;;;3.83;;
20697;SDS011;10508;50.956;4.640;2023-07-31T02:14:28;12.27;;;3.85;;
20697;SDS011;10508;50.956;4.640;2023-07-31T02:16:53;10.95;;;3.72;;
20697;SDS011;10508;50.956;4.640;2023-07-31T02:19:19;15.48;;;3.70;;
20697;SDS011;10508;50.956;4.640;2023-07-31T02:21:46;16.52;;;3.83;;
20697;SDS011;10508;50.956;4.640;2023-07-31T02:24:14;16.15;;;4.40;;
20697;SDS011;10508;50.956;4.640;2023-07-31T02:26:40;10.40;;;3.53;;
20697;SDS011;10508;50.956;4.640;2023-07-31T02:29:08;12.80;;;3.40;;
20697;SDS011;10508;50.956;4.640;2023-07-31T02:31:36;12.38;;;3.45;;
20697;SDS011;10508;50.956;4.640;2023-07-31T02:34:05;15.23;;;3.90;;
20697;SDS011;10508;50.956;4.640;2023-07-31T02:36:31;13.07;;;4.00;;
20697;SDS011;10508;50.956;4.640;2023-07-31T02:38:56;8.55;;;3.72;;
20697;SDS011;10508;50.956;4.640;2023-07-31T02:41:22;14.02;;;3.78;;
20697;SDS011;10508;50.956;4.640;2023-07-31T02:43:48;11.50;;;3.97;;
20697;SDS011;10508;50.956;4.640;2023-07-31T02:46:13;12.35;;;4.03;;
20697;SDS011;10508;50.956;4.640;2023-07-31T02:48:39;11.88;;;3.60;;
20697;SDS011;10508;50.956;4.640;2023-07-31T02:51:05;9.48;;;3.55;;
20697;SDS011;10508;50.956;4.640;2023-07-31T02:53:33;17.00;;;3.88;;
20697;SDS011;10508;50.956;4.640;2023-07-31T02:56:00;13.05;;;4.40;;
20697;SDS011;10508;50.956;4.640;2023-07-31T02:58:26;9.85;;;3.65;;
20697;SDS011;10508;50.956;4.640;2023-07-31T03:00:53;13.05;;;4.00;;
20697;SDS011;10508;50.956;4.640;2023-07-31T03:03:19;7.95;;;3.67;;
20697;SDS011;10508;50.956;4.640;2023-07-31T03:05:47;10.38;;;4.05;;
20697;SDS011;10508;50.956;4.640;2023-07-31T03:08:13;9.80;;;3.60;;
20697;SDS011;10508;50.956;4.640;2023-07-31T03:10:39;8.52;;;4.10;;
20697;SDS011;10508;50.956;4.640;2023-07-31T03:13:05;9.98;;;4.03;;
20697;SDS011;10508;50.956;4.640;2023-07-31T03:15:31;5.85;;;3.25;;
20697;SDS011;10508;50.956;4.640;2023-07-31T03:17:56;8.50;;;3.08;;
20697;SDS011;10508;50.956;4.640;2023-07-31T03:20:22;11.30;;;3.40;;
20697;SDS011;10508;50.956;4.640;2023-07-31T03:22:48;8.35;;;3.90;;
20697;SDS011;10508;50.956;4.640;2023-07-31T03:25:13;11.80;;;3.75;;
20697;SDS011;10508;50.956;4.640;2023-07-31T03:27:39;11.68;;;3.65;;
20697;SDS011;10508;50.956;4.640;2023-07-31T03:30:05;10.50;;;3.47;;
20697;SDS011;10508;50.956;4.640;2023-07-31T03:32:31;10.43;;;3.22;;
20697;SDS011;10508;50.956;4.640;2023-07-31T03:34:57;6.65;;;2.95;;
20697;SDS011;10508;50.956;4.640;2023-07-31T03:37:23;14.68;;;3.38;;
20697;SDS011;10508;50.956;4.640;2023-07-31T03:39:48;6.18;;;3.13;;
20697;SDS011;10508;50.956;4.640;2023-07-31T03:42:14;13.40;;;3.47;;
20697;SDS011;10508;50.956;4.640;2023-07-31T03:44:40;8.43;;;3.72;;
20697;SDS011;10508;50.956;4.640;2023-07-31T03:47:05;8.75;;;3.70;;
20697;SDS011;10508;50.956;4.640;2023-07-31T03:49:31;7.43;;;3.08;;
20697;SDS011;10508;50.956;4.640;2023-07-31T03:51:57;6.32;;;2.92;;
20697;SDS011;10508;50.956;4.640;2023-07-31T03:54:22;8.15;;;3.10;;
20697;SDS011;10508;50.956;4.640;2023-07-31T03:56:48;7.93;;;3.40;;
20697;SDS011;10508;50.956;4.640;2023-07-31T03:59:13;8.20;;;4.32;;
20697;SDS011;10508;50.956;4.640;2023-07-31T04:01:39;11.75;;;3.33;;
20697;SDS011;10508;50.956;4.640;2023-07-31T04:04:05;6.32;;;3.22;;
20697;SDS011;10508;50.956;4.640;2023-07-31T04:06:30;8.35;;;2.90;;
20697;SDS011;10508;50.956;4.640;2023-07-31T04:08:56;10.82;;;3.50;;
20697;SDS011;10508;50.956;4.640;2023-07-31T04:11:22;10.48;;;3.92;;
20697;SDS011;10508;50.956;4.640;2023-07-31T04:13:47;7.38;;;3.60;;
20697;SDS011;10508;50.956;4.640;2023-07-31T04:16:15;10.15;;;3.20;;
20697;SDS011;10508;50.956;4.640;2023-07-31T04:18:40;6.93;;;3.58;;
20697;SDS011;10508;50.956;4.640;2023-07-31T04:21:08;8.82;;;4.10;;
20697;SDS011;10508;50.956;4.640;2023-07-31T04:23:35;11.20;;;3.88;;
20697;SDS011;10508;50.956;4.640;2023-07-31T04:26:00;7.93;;;3.72;;
20697;SDS011;10508;50.956;4.640;2023-07-31T04:28:26;9.10;;;4.13;;
20697;SDS011;10508;50.956;4.640;2023-07-31T04:30:52;10.38;;;3.92;;
20697;SDS011;10508;50.956;4.640;2023-07-31T04:33:18;7.82;;;3.80;;
20697;SDS011;10508;50.956;4.640;2023-07-31T04:35:50;7.57;;;3.33;;
20697;SDS011;10508;50.956;4.640;2023-07-31T04:38:19;9.02;;;3.35;;
20697;SDS011;10508;50.956;4.640;2023-07-31T04:40:48;7.18;;;2.97;;
20697;SDS011;10508;50.956;4.640;2023-07-31T04:43:17;9.07;;;3.45;;
20697;SDS011;10508;50.956;4.640;2023-07-31T04:45:46;10.57;;;3.40;;
20697;SDS011;10508;50.956;4.640;2023-07-31T04:48:15;9.55;;;3.78;;
20697;SDS011;10508;50.956;4.640;2023-07-31T04:50:43;11.55;;;3.45;;
20697;SDS011;10508;50.956;4.640;2023-07-31T04:53:10;8.00;;;3.58;;
20697;SDS011;10508;50.956;4.640;2023-07-31T04:55:39;6.75;;;3.45;;
20697;SDS011;10508;50.956;4.640;2023-07-31T04:58:06;11.52;;;3.45;;
20697;SDS011;10508;50.956;4.640;2023-07-31T05:00:34;6.82;;;3.20;;
20697;SDS011;10508;50.956;4.640;2023-07-31T05:03:02;6.45;;;3.08;;
20697;SDS011;10508;50.956;4.640;2023-07-31T05:05:28;10.25;;;3.47;;
20697;SDS011;10508;50.956;4.640;2023-07-31T05:07:57;9.57;;;3.88;;
20697;SDS011;10508;50.956;4.640;2023-07-31T05:10:26;10.60;;;3.28;;
20697;SDS011;10508;50.956;4.640;2023-07-31T05:12:54;9.02;;;3.67;;
20697;SDS011;10508;50.956;4.640;2023-07-31T05:15:21;8.88;;;3.72;;
20697;SDS011;10508;50.956;4.640;2023-07-31T05:17:49;6.45;;;3.17;;
20697;SDS011;10508;50.956;4.640;2023-07-31T05:20:17;10.00;;;3.88;;
20697;SDS011;10508;50.956;4.640;2023-07-31T05:22:46;6.55;;;3.38;;
20697;SDS011;10508;50.956;4.640;2023-07-31T05:25:15;9.07;;;3.67;;
20697;SDS011;10508;50.956;4.640;2023-07-31T05:27:44;10.45;;;3.30;;
20697;SDS011;10508;50.956;4.640;2023-07-31T05:30:13;9.35;;;3.40;;
20697;SDS011;10508;50.956;4.640;2023-07-31T05:32:41;9.10;;;3.28;;
20697;SDS011;10508;50.956;4.640;2023-07-31T05:35:07;8.98;;;3.10;;
20697;SDS011;10508;50.956;4.640;2023-07-31T05:37:34;5.85;;;3.03;;
20697;SDS011;10508;50.956;4.640;2023-07-31T05:40:03;8.27;;;3.60;;
20697;SDS011;10508;50.956;4.640;2023-07-31T05:42:31;9.77;;;3.38;;
20697;SDS011;10508;50.956;4.640;2023-07-31T05:44:57;9.98;;;3.45;;
20697;SDS011;10508;50.956;4.640;2023-07-31T05:47:23;5.60;;;2.92;;
20697;SDS011;10508;50.956;4.640;2023-07-31T05:49:49;5.57;;;2.80;;
20697;SDS011;10508;50.956;4.640;2023-07-31T05:52:17;7.95;;;4.10;;
20697;SDS011;10508;50.956;4.640;2023-07-31T05:54:43;8.82;;;3.65;;
20697;SDS011;10508;50.956;4.640;2023-07-31T05:57:11;8.25;;;3.38;;
20697;SDS011;10508;50.956;4.640;2023-07-31T05:59:38;9.48;;;3.30;;
20697;SDS011;10508;50.956;4.640;2023-07-31T06:02:06;9.23;;;3.25;;
20697;SDS011;10508;50.956;4.640;2023-07-31T06:04:34;8.93;;;3.65;;
20697;SDS011;10508;50.956;4.640;2023-07-31T06:07:03;8.77;;;3.42;;
20697;SDS011;10508;50.956;4.640;2023-07-31T06:09:34;9.20;;;3.33;;
20697;SDS011;10508;50.956;4.640;2023-07-31T06:12:02;9.57;;;3.25;;
20697;SDS011;10508;50.956;4.640;2023-07-31T06:14:32;13.10;;;3.47;;
20697;SDS011;10508;50.956;4.640;2023-07-31T06:17:00;11.85;;;3.40;;
20697;SDS011;10508;50.956;4.640;2023-07-31T06:19:26;10.68;;;3.05;;
20697;SDS011;10508;50.956;4.640;2023-07-31T06:21:52;11.63;;;4.00;;
20697;SDS011;10508;50.956;4.640;2023-07-31T06:24:18;8.73;;;3.30;;
20697;SDS011;10508;50.956;4.640;2023-07-31T06:26:45;12.05;;;3.78;;
20697;SDS011;10508;50.956;4.640;2023-07-31T06:29:11;9.85;;;3.70;;
20697;SDS011;10508;50.956;4.640;2023-07-31T06:31:36;9.15;;;3.13;;
20697;SDS011;10508;50.956;4.640;2023-07-31T06:34:02;8.73;;;2.92;;
20697;SDS011;10508;50.956;4.640;2023-07-31T06:36:28;11.65;;;3.60;;
20697;SDS011;10508;50.956;4.640;2023-07-31T06:38:55;6.75;;;3.30;;
20697;SDS011;10508;50.956;4.640;2023-07-31T06:41:21;8.55;;;2.85;;
20697;SDS011;10508;50.956;4.640;2023-07-31T06:43:47;11.45;;;3.38;;
20697;SDS011;10508;50.956;4.640;2023-07-31T06:46:13;8.88;;;3.38;;
20697;SDS011;10508;50.956;4.640;2023-07-31T06:48:39;9.95;;;3.10;;
20697;SDS011;10508;50.956;4.640;2023-07-31T06:51:05;10.65;;;3.42;;
20697;SDS011;10508;50.956;4.640;2023-07-31T06:53:31;9.35;;;2.85;;
20697;SDS011;10508;50.956;4.640;2023-07-31T06:55:57;9.90;;;2.72;;
20697;SDS011;10508;50.956;4.640;2023-07-31T06:58:23;5.18;;;2.47;;
20697;SDS011;10508;50.956;4.640;2023-07-31T07:00:49;7.07;;;3.58;;
20697;SDS011;10508;50.956;4.640;2023-07-31T07:03:17;7.13;;;2.80;;
20697;SDS011;10508;50.956;4.640;2023-07-31T07:05:43;9.55;;;3.25;;
20697;SDS011;10508;50.956;4.640;2023-07-31T07:08:09;7.15;;;2.95;;
20697;SDS011;10508;50.956;4.640;2023-07-31T07:10:36;7.65;;;3.28;;
20697;SDS011;10508;50.956;4.640;2023-07-31T07:13:02;6.60;;;2.97;;
20697;SDS011;10508;50.956;4.640;2023-07-31T07:15:28;5.53;;;2.95;;
20697;SDS011;10508;50.956;4.640;2023-07-31T07:17:54;5.43;;;2.67;;
20697;SDS011;10508;50.956;4.640;2023-07-31T07:20:20;9.30;;;2.78;;
20697;SDS011;10508;50.956;4.640;2023-07-31T07:22:46;7.05;;;2.60;;
20697;SDS011;10508;50.956;4.640;2023-07-31T07:25:12;8.32;;;3.03;;
20697;SDS011;10508;50.956;4.640;2023-07-31T07:27:38;10.18;;;2.75;;
20697;SDS011;10508;50.956;4.640;2023-07-31T07:30:04;12.15;;;2.88;;
20697;SDS011;10508;50.956;4.640;2023-07-31T07:32:30;5.03;;;2.53;;
20697;SDS011;10508;50.956;4.640;2023-07-31T07:34:57;6.75;;;2.60;;
20697;SDS011;10508;50.956;4.640;2023-07-31T07:37:23;8.63;;;2.95;;
20697;SDS011;10508;50.956;4.640;2023-07-31T07:39:49;8.88;;;2.67;;
20697;SDS011;10508;50.956;4.640;2023-07-31T07:42:15;7.30;;;2.60;;
20697;SDS011;10508;50.956;4.640;2023-07-31T07:44:41;6.05;;;2.40;;
20697;SDS011;10508;50.956;4.640;2023-07-31T07:47:07;6.05;;;2.92;;
20697;SDS011;10508;50.956;4.640;2023-07-31T07:49:33;10.00;;;2.80;;
20697;SDS011;10508;50.956;4.640;2023-07-31T07:52:00;8.93;;;3.22;;
20697;SDS011;10508;50.956;4.640;2023-07-31T07:54:26;5.93;;;2.38;;
20697;SDS011;10508;50.956;4.640;2023-07-31T07:56:52;6.70;;;2.70;;
20697;SDS011;10508;50.956;4.640;2023-07-31T07:59:18;7.10;;;2.45;;
20697;SDS011;10508;50.956;4.640;2023-07-31T08:01:43;6.57;;;2.80;;
20697;SDS011;10508;50.956;4.640;2023-07-31T08:04:09;9.38;;;2.80;;
20697;SDS011;10508;50.956;4.640;2023-07-31T08:06:35;8.38;;;2.72;;
20697;SDS011;10508;50.956;4.640;2023-07-31T08:09:02;7.03;;;2.42;;
20697;SDS011;10508;50.956;4.640;2023-07-31T08:11:32;4.57;;;2.30;;
20697;SDS011;10508;50.956;4.640;2023-07-31T08:13:58;7.28;;;2.45;;
20697;SDS011;10508;50.956;4.640;2023-07-31T08:16:25;9.02;;;2.75;;
20697;SDS011;10508;50.956;4.640;2023-07-31T08:18:51;7.20;;;2.28;;
20697;SDS011;10508;50.956;4.640;2023-07-31T08:21:17;8.50;;;2.20;;
20697;SDS011;10508;50.956;4.640;2023-07-31T08:23:44;8.45;;;2.50;;
20697;SDS011;10508;50.956;4.640;2023-07-31T08:26:16;5.72;;;2.22;;
20697;SDS011;10508;50.956;4.640;2023-07-31T08:28:45;6.85;;;2.40;;
20697;SDS011;10508;50.956;4.640;2023-07-31T08:31:14;10.48;;;2.80;;
20697;SDS011;10508;50.956;4.640;2023-07-31T08:33:43;7.18;;;2.20;;
20697;SDS011;10508;50.956;4.640;2023-07-31T08:36:09;4.90;;;2.35;;
20697;SDS011;10508;50.956;4.640;2023-07-31T08:38:37;3.35;;;1.75;;
20697;SDS011;10508;50.956;4.640;2023-07-31T08:41:05;9.60;;;2.17;;
20697;SDS011;10508;50.956;4.640;2023-07-31T08:43:32;3.63;;;2.00;;
20697;SDS011;10508;50.956;4.640;2023-07-31T08:46:01;4.88;;;1.85;;
20697;SDS011;10508;50.956;4.640;2023-07-31T08:48:28;4.25;;;1.85;;
20697;SDS011;10508;50.956;4.640;2023-07-31T08:50:55;8.02;;;1.77;;
20697;SDS011;10508;50.956;4.640;2023-07-31T08:53:21;6.28;;;1.98;;
20697;SDS011;10508;50.956;4.640;2023-07-31T08:55:47;4.18;;;1.98;;
20697;SDS011;10508;50.956;4.640;2023-07-31T08:58:14;7.15;;;2.00;;
20697;SDS011;10508;50.956;4.640;2023-07-31T09:00:40;3.63;;;1.90;;
20697;SDS011;10508;50.956;4.640;2023-07-31T09:03:09;6.03;;;2.40;;
20697;SDS011;10508;50.956;4.640;2023-07-31T09:05:40;5.07;;;2.03;;
20697;SDS011;10508;50.956;4.640;2023-07-31T09:08:10;7.47;;;1.98;;
20697;SDS011;10508;50.956;4.640;2023-07-31T09:10:41;7.10;;;2.22;;
20697;SDS011;10508;50.956;4.640;2023-07-31T09:13:07;7.97;;;2.25;;
20697;SDS011;10508;50.956;4.640;2023-07-31T09:15:34;6.35;;;1.90;;
20697;SDS011;10508;50.956;4.640;2023-07-31T09:18:03;4.53;;;1.90;;
20697;SDS011;10508;50.956;4.640;2023-07-31T09:20:30;4.53;;;1.80;;
20697;SDS011;10508;50.956;4.640;2023-07-31T09:22:56;4.70;;;1.98;;
20697;SDS011;10508;50.956;4.640;2023-07-31T09:25:34;5.05;;;2.13;;
20697;SDS011;10508;50.956;4.640;2023-07-31T09:28:11;7.57;;;2.33;;
20697;SDS011;10508;50.956;4.640;2023-07-31T09:30:47;5.40;;;2.45;;
20697;SDS011;10508;50.956;4.640;2023-07-31T09:33:14;9.50;;;2.80;;
20697;SDS011;10508;50.956;4.640;2023-07-31T09:35:43;6.05;;;2.50;;
20697;SDS011;10508;50.956;4.640;2023-07-31T09:38:12;6.80;;;2.97;;
20697;SDS011;10508;50.956;4.640;2023-07-31T09:40:43;6.18;;;2.25;;
20697;SDS011;10508;50.956;4.640;2023-07-31T09:43:11;7.10;;;2.30;;
20697;SDS011;10508;50.956;4.640;2023-07-31T09:45:42;6.15;;;2.65;;
20697;SDS011;10508;50.956;4.640;2023-07-31T09:48:09;6.13;;;2.80;;
20697;SDS011;10508;50.956;4.640;2023-07-31T09:50:36;10.68;;;3.20;;
20697;SDS011;10508;50.956;4.640;2023-07-31T09:53:04;8.32;;;3.17;;
20697;SDS011;10508;50.956;4.640;2023-07-31T09:55:30;6.63;;;2.25;;
20697;SDS011;10508;50.956;4.640;2023-07-31T09:57:59;8.38;;;2.53;;
20697;SDS011;10508;50.956;4.640;2023-07-31T10:00:28;5.55;;;2.00;;
20697;SDS011;10508;50.956;4.640;2023-07-31T10:02:57;8.93;;;2.20;;
20697;SDS011;10508;50.956;4.640;2023-07-31T10:05:24;8.07;;;2.50;;
20697;SDS011;10508;50.956;4.640;2023-07-31T10:07:58;6.88;;;2.05;;
20697;SDS011;10508;50.956;4.640;2023-07-31T10:10:25;5.40;;;2.08;;
20697;SDS011;10508;50.956;4.640;2023-07-31T10:12:52;6.30;;;2.00;;
20697;SDS011;10508;50.956;4.640;2023-07-31T10:15:19;4.15;;;2.10;;
20697;SDS011;10508;50.956;4.640;2023-07-31T10:17:49;5.03;;;1.90;;
20697;SDS011;10508;50.956;4.640;2023-07-31T10:20:15;3.17;;;1.90;;
20697;SDS011;10508;50.956;4.640;2023-07-31T10:22:42;5.15;;;2.00;;
20697;SDS011;10508;50.956;4.640;2023-07-31T10:25:08;5.43;;;2.20;;
20697;SDS011;10508;50.956;4.640;2023-07-31T10:27:35;8.23;;;2.35;;
20697;SDS011;10508;50.956;4.640;2023-07-31T10:30:03;7.43;;;2.53;;
20697;SDS011;10508;50.956;4.640;2023-07-31T10:32:30;4.47;;;2.50;;
20697;SDS011;10508;50.956;4.640;2023-07-31T10:34:57;6.53;;;2.58;;
20697;SDS011;10508;50.956;4.640;2023-07-31T10:37:31;6.75;;;2.28;;
20697;SDS011;10508;50.956;4.640;2023-07-31T10:42:31;7.40;;;3.03;;
20697;SDS011;10508;50.956;4.640;2023-07-31T10:45:09;7.18;;;2.42;;
20697;SDS011;10508;50.956;4.640;2023-07-31T10:47:44;5.90;;;2.45;;
20697;SDS011;10508;50.956;4.640;2023-07-31T10:50:16;9.68;;;2.65;;
20697;SDS011;10508;50.956;4.640;2023-07-31T10:52:48;8.57;;;2.80;;
20697;SDS011;10508;50.956;4.640;2023-07-31T10:57:56;16.48;;;4.07;;
20697;SDS011;10508;50.956;4.640;2023-07-31T11:00:29;8.73;;;3.08;;
20697;SDS011;10508;50.956;4.640;2023-07-31T11:02:58;10.02;;;2.50;;
20697;SDS011;10508;50.956;4.640;2023-07-31T11:10:40;9.77;;;3.10;;
20697;SDS011;10508;50.956;4.640;2023-07-31T11:13:06;5.43;;;2.90;;
20697;SDS011;10508;50.956;4.640;2023-07-31T11:15:32;11.48;;;2.80;;
20697;SDS011;10508;50.956;4.640;2023-07-31T11:17:59;7.63;;;3.08;;
20697;SDS011;10508;50.956;4.640;2023-07-31T11:20:29;8.02;;;2.85;;
20697;SDS011;10508;50.956;4.640;2023-07-31T11:22:58;13.90;;;3.20;;
20697;SDS011;10508;50.956;4.640;2023-07-31T11:25:25;11.82;;;3.13;;
20697;SDS011;10508;50.956;4.640;2023-07-31T11:27:51;8.43;;;3.30;;
20697;SDS011;10508;50.956;4.640;2023-07-31T11:30:19;13.73;;;3.47;;
20697;SDS011;10508;50.956;4.640;2023-07-31T11:32:45;13.90;;;3.33;;
20697;SDS011;10508;50.956;4.640;2023-07-31T11:35:14;10.15;;;3.28;;
20697;SDS011;10508;50.956;4.640;2023-07-31T11:37:40;14.68;;;3.85;;
20697;SDS011;10508;50.956;4.640;2023-07-31T11:40:07;10.63;;;3.10;;
20697;SDS011;10508;50.956;4.640;2023-07-31T11:42:36;9.68;;;3.20;;
20697;SDS011;10508;50.956;4.640;2023-07-31T11:45:03;8.85;;;3.20;;
20697;SDS011;10508;50.956;4.640;2023-07-31T11:47:30;10.35;;;3.33;;
20697;SDS011;10508;50.956;4.640;2023-07-31T11:50:00;9.05;;;3.05;;
20697;SDS011;10508;50.956;4.640;2023-07-31T11:52:27;7.03;;;2.97;;
20697;SDS011;10508;50.956;4.640;2023-07-31T11:54:59;10.77;;;3.40;;
20697;SDS011;10508;50.956;4.640;2023-07-31T11:57:25;8.77;;;3.17;;
20697;SDS011;10508;50.956;4.640;2023-07-31T11:59:52;10.52;;;3.58;;
20697;SDS011;10508;50.956;4.640;2023-07-31T12:02:18;10.18;;;3.20;;
20697;SDS011;10508;50.956;4.640;2023-07-31T12:04:45;7.32;;;2.90;;
20697;SDS011;10508;50.956;4.640;2023-07-31T12:07:11;8.18;;;3.72;;
20697;SDS011;10508;50.956;4.640;2023-07-31T12:09:37;9.48;;;3.15;;
20697;SDS011;10508;50.956;4.640;2023-07-31T12:12:06;8.07;;;3.13;;
20697;SDS011;10508;50.956;4.640;2023-07-31T12:14:34;10.48;;;2.88;;
20697;SDS011;10508;50.956;4.640;2023-07-31T12:17:00;7.28;;;3.17;;
20697;SDS011;10508;50.956;4.640;2023-07-31T12:19:29;11.93;;;3.95;;
20697;SDS011;10508;50.956;4.640;2023-07-31T12:21:56;5.13;;;2.38;;
20697;SDS011;10508;50.956;4.640;2023-07-31T12:24:23;8.07;;;2.85;;
20697;SDS011;10508;50.956;4.640;2023-07-31T12:26:48;7.57;;;3.13;;
20697;SDS011;10508;50.956;4.640;2023-07-31T12:29:14;10.38;;;3.38;;
20697;SDS011;10508;50.956;4.640;2023-07-31T12:31:41;9.95;;;3.00;;
20697;SDS011;10508;50.956;4.640;2023-07-31T12:34:17;7.13;;;3.70;;
20697;SDS011;10508;50.956;4.640;2023-07-31T12:36:44;8.00;;;3.22;;
20697;SDS011;10508;50.956;4.640;2023-07-31T12:39:09;9.18;;;3.13;;
20697;SDS011;10508;50.956;4.640;2023-07-31T12:41:35;8.68;;;3.17;;
20697;SDS011;10508;50.956;4.640;2023-07-31T12:44:01;6.97;;;2.95;;
20697;SDS011;10508;50.956;4.640;2023-07-31T12:46:28;7.75;;;3.35;;
20697;SDS011;10508;50.956;4.640;2023-07-31T12:48:54;8.95;;;3.67;;
20697;SDS011;10508;50.956;4.640;2023-07-31T12:51:20;12.65;;;3.65;;
20697;SDS011;10508;50.956;4.640;2023-07-31T12:53:46;8.52;;;3.00;;
20697;SDS011;10508;50.956;4.640;2023-07-31T12:56:11;8.15;;;3.13;;
20697;SDS011;10508;50.956;4.640;2023-07-31T12:58:37;9.32;;;2.97;;
20697;SDS011;10508;50.956;4.640;2023-07-31T13:01:02;7.18;;;2.85;;
20697;SDS011;10508;50.956;4.640;2023-07-31T13:03:28;5.85;;;2.33;;
20697;SDS011;10508;50.956;4.640;2023-07-31T13:05:54;7.05;;;2.72;;
20697;SDS011;10508;50.956;4.640;2023-07-31T13:08:20;8.57;;;2.97;;
20697;SDS011;10508;50.956;4.640;2023-07-31T13:10:46;12.23;;;3.03;;
20697;SDS011;10508;50.956;4.640;2023-07-31T13:13:11;9.20;;;3.38;;
20697;SDS011;10508;50.956;4.640;2023-07-31T13:15:37;10.05;;;3.17;;
20697;SDS011;10508;50.956;4.640;2023-07-31T13:18:03;12.88;;;2.97;;
20697;SDS011;10508;50.956;4.640;2023-07-31T13:20:29;4.63;;;2.45;;
20697;SDS011;10508;50.956;4.640;2023-07-31T13:22:54;9.77;;;2.90;;
20697;SDS011;10508;50.956;4.640;2023-07-31T13:25:20;10.45;;;3.00;;
20697;SDS011;10508;50.956;4.640;2023-07-31T13:27:46;7.28;;;2.88;;
20697;SDS011;10508;50.956;4.640;2023-07-31T13:30:12;7.70;;;2.90;;
20697;SDS011;10508;50.956;4.640;2023-07-31T13:32:37;8.07;;;3.20;;
20697;SDS011;10508;50.956;4.640;2023-07-31T13:35:05;7.53;;;2.63;;
20697;SDS011;10508;50.956;4.640;2023-07-31T13:37:31;9.68;;;2.90;;
20697;SDS011;10508;50.956;4.640;2023-07-31T13:39:59;4.95;;;2.28;;
20697;SDS011;10508;50.956;4.640;2023-07-31T13:42:25;6.35;;;2.40;;
20697;SDS011;10508;50.956;4.640;2023-07-31T13:44:53;4.20;;;2.20;;
20697;SDS011;10508;50.956;4.640;2023-07-31T13:47:21;4.43;;;2.10;;
20697;SDS011;10508;50.956;4.640;2023-07-31T13:49:46;6.05;;;2.58;;
20697;SDS011;10508;50.956;4.640;2023-07-31T13:52:12;5.07;;;2.40;;
20697;SDS011;10508;50.956;4.640;2023-07-31T13:54:39;9.30;;;2.78;;
20697;SDS011;10508;50.956;4.640;2023-07-31T13:57:05;6.22;;;2.50;;
20697;SDS011;10508;50.956;4.640;2023-07-31T13:59:33;7.35;;;2.30;;
20697;SDS011;10508;50.956;4.640;2023-07-31T14:02:02;6.57;;;2.20;;
20697;SDS011;10508;50.956;4.640;2023-07-31T14:04:28;2.95;;;1.80;;
20697;SDS011;10508;50.956;4.640;2023-07-31T14:06:55;9.95;;;2.42;;
20697;SDS011;10508;50.956;4.640;2023-07-31T14:09:24;11.13;;;2.38;;
20697;SDS011;10508;50.956;4.640;2023-07-31T14:11:50;5.93;;;2.28;;
20697;SDS011;10508;50.956;4.640;2023-07-31T14:14:18;3.30;;;1.95;;
20697;SDS011;10508;50.956;4.640;2023-07-31T14:16:47;5.13;;;1.90;;
20697;SDS011;10508;50.956;4.640;2023-07-31T14:19:15;3.85;;;1.85;;
20697;SDS011;10508;50.956;4.640;2023-07-31T14:21:41;7.95;;;2.40;;
20697;SDS011;10508;50.956;4.640;2023-07-31T14:24:09;5.65;;;1.75;;
20697;SDS011;10508;50.956;4.640;2023-07-31T14:26:38;4.13;;;2.00;;
20697;SDS011;10508;50.956;4.640;2023-07-31T14:29:06;6.93;;;2.13;;
20697;SDS011;10508;50.956;4.640;2023-07-31T14:31:32;3.63;;;1.88;;
20697;SDS011;10508;50.956;4.640;2023-07-31T14:33:58;3.53;;;1.73;;
20697;SDS011;10508;50.956;4.640;2023-07-31T14:36:23;6.63;;;1.77;;
20697;SDS011;10508;50.956;4.640;2023-07-31T14:38:49;3.92;;;1.98;;
20697;SDS011;10508;50.956;4.640;2023-07-31T14:41:17;7.45;;;2.38;;
20697;SDS011;10508;50.956;4.640;2023-07-31T14:43:44;5.28;;;1.80;;
20697;SDS011;10508;50.956;4.640;2023-07-31T14:46:09;3.25;;;1.63;;
20697;SDS011;10508;50.956;4.640;2023-07-31T14:48:35;4.80;;;1.65;;
20697;SDS011;10508;50.956;4.640;2023-07-31T14:51:02;5.07;;;1.70;;
20697;SDS011;10508;50.956;4.640;2023-07-31T14:53:27;5.15;;;2.10;;
20697;SDS011;10508;50.956;4.640;2023-07-31T14:55:54;5.60;;;1.80;;